Terminal Aerodrome Forecast
Issued by NWS Anchorage, AK

Home | Current Version | Previous Version | Text Only | Print | Product List | Glossary On
Versions: 1 2 3 4 5 6 7 8 9 10 11 12 13 14 15 16 17 18 19 20 21 22 23 24 25 26 27 28 29 30 31
000
FTAK31 PANC 261133 AAA
TAFANC
TAF AMD
PANC 261133Z 2612/2718 16005KT P6SM VCFG BKN030 BKN080
     FM262100 VRB04KT P6SM VCFG FEW002 BKN060
     FM270000 VRB03KT P6SM BKN200=

USA.gov is the U.S. government's official web portal to all federal, state and local government web resources and services.